Time;durP1;ratioP1;P1;durP2;ratioP2;P2;SDS_P1;SDS_P2;PMS_P1;PMS_P2;Temp;Humidity;BMP_temperature;BMP_pressure;BME280_temperature;BME280_humidity;BME280_pressure;Samples;Min_cycle;Max_cycle;Signal;HPM_P1;HPM_P2
2022/02/01 00:03:56;;;;;;;68.18;53.72;;;;;;;;;;4911171;29;20025;-78
2022/02/01 00:06:50;;;;;;;58.40;52.33;;;;;;;;;;4911863;29;20033;-78
2022/02/01 00:09:25;;;;;;;63.97;53.30;;;;;;;;;;4951150;29;20044;-78
2022/02/01 00:12:16;;;;;;;67.80;53.70;;;;;;;;;;4963602;29;20016;-78
2022/02/01 00:15:10;;;;;;;58.90;52.63;;;;;;;;;;4976188;29;20019;-78
2022/02/01 00:37:14;;;;;;;62.35;54.22;;;;;;;;;;4945518;29;20091;-78
2022/02/01 00:39:44;;;;;;;57.13;51.22;;;;;;;;;;4959188;29;20028;-78
2022/02/01 00:42:10;;;;;;;57.67;51.53;;;;;;;;;;4951829;29;20011;-78
2022/02/01 00:44:35;;;;;;;;;;;;;;;;;;4949614;29;20118;-78
2022/02/01 00:47:00;;;;;;;57.28;51.10;;;;;;;;;;4968564;28;19972;-78
2022/02/01 00:49:28;;;;;;;54.83;49.45;;;;;;;;;;4957155;29;20027;-78
2022/02/01 00:51:53;;;;;;;78.45;58.15;;;;;;;;;;4953404;29;20457;-77
2022/02/01 00:54:18;;;;;;;68.60;53.83;;;;;;;;;;4952351;29;20066;-78
2022/02/01 00:56:43;;;;;;;56.93;51.30;;;;;;;;;;4952728;29;20024;-77
2022/02/01 00:59:09;;;;;;;56.80;50.93;;;;;;;;;;4956094;28;20050;-76
2022/02/01 01:01:34;;;;;;;55.90;50.20;;;;;;;;;;4950124;29;20068;-77
2022/02/01 01:03:59;;;;;;;54.30;49.10;;;;;;;;;;4953513;29;20477;-77
2022/02/01 01:06:25;;;;;;;56.40;50.67;;;;;;;;;;4967993;28;20515;-78
2022/02/01 01:08:51;;;;;;;57.40;50.58;;;;;;;;;;4954013;29;20047;-79
2022/02/01 01:11:16;;;;;;;55.47;49.93;;;;;;;;;;4947675;29;20433;-79
2022/02/01 01:14:21;;;;;;;56.00;50.23;;;;;;;;;;4958307;29;20038;-77
2022/02/01 01:17:03;;;;;;;55.00;49.30;;;;;;;;;;4946084;29;20544;-79
2022/02/01 01:43:54;;;;;;;53.75;48.15;;;;;;;;;;4954225;29;20055;-78
2022/02/01 01:54:16;;;;;;;56.08;49.95;;;;;;;;;;4956218;29;20086;-77
2022/02/01 01:56:41;;;;;;;54.08;48.78;;;;;;;;;;4955782;29;20035;-77
2022/02/01 01:59:08;;;;;;;53.03;48.03;;;;;;;;;;4954106;29;20078;-78
2022/02/01 02:01:34;;;;;;;51.60;46.97;;;;;;;;;;4953585;29;20583;-79
2022/02/01 02:04:00;;;;;;;53.10;47.83;;;;;;;;;;4953824;29;20077;-78
2022/02/01 02:06:25;;;;;;;54.10;48.60;;;;;;;;;;4947039;28;20135;-78
2022/02/01 02:08:54;;;;;;;53.50;48.27;;;;;;;;;;4949128;29;20043;-77
2022/02/01 02:11:28;;;;;;;56.60;49.85;;;;;;;;;;4947855;29;20019;-77
2022/02/01 02:16:38;;;;;;;55.35;49.25;;;;;;;;;;4951184;29;20038;-78
2022/02/01 02:19:06;;;;;;;53.13;47.47;;;;;;;;;;4953096;29;20489;-78
2022/02/01 02:21:32;;;;;;;53.05;47.83;;;;;;;;;;4945653;29;20035;-78
2022/02/01 02:23:57;;;;;;;52.37;47.23;;;;;;;;;;4949361;28;20054;-79
2022/02/01 02:26:23;;;;;;;53.60;48.13;;;;;;;;;;4949224;28;20519;-79
2022/02/01 02:28:48;;;;;;;54.17;48.47;;;;;;;;;;4955609;28;20029;-80
2022/02/01 02:31:14;;;;;;;54.07;48.03;;;;;;;;;;4946297;29;20110;-79
2022/02/01 02:33:39;;;;;;;54.53;48.72;;;;;;;;;;4943988;29;20027;-80
2022/02/01 02:36:15;;;;;;;53.67;48.17;;;;;;;;;;4950391;29;20031;-78
2022/02/01 02:46:28;;;;;;;56.03;49.22;;;;;;;;;;4950384;29;20042;-80
2022/02/01 02:48:54;;;;;;;52.80;47.75;;;;;;;;;;4954176;29;20016;-80
2022/02/01 02:51:19;;;;;;;59.43;50.67;;;;;;;;;;4954866;29;20265;-80
2022/02/01 02:53:45;;;;;;;57.73;49.50;;;;;;;;;;4946627;28;20030;-81
2022/02/01 02:56:10;;;;;;;63.03;48.47;;;;;;;;;;4943581;29;20028;-78
2022/02/01 02:58:35;;;;;;;52.33;47.47;;;;;;;;;;4952764;29;20288;-78
2022/02/01 03:01:00;;;;;;;51.33;46.47;;;;;;;;;;4953968;29;20038;-78
2022/02/01 03:03:26;;;;;;;52.03;47.10;;;;;;;;;;4958401;29;20057;-77
2022/02/01 03:05:51;;;;;;;56.25;50.17;;;;;;;;;;4968017;28;20042;-79
2022/02/01 03:08:17;;;;;;;50.97;46.33;;;;;;;;;;4973163;28;20100;-77
2022/02/01 03:10:44;;;;;;;53.23;47.77;;;;;;;;;;4973421;28;20004;-77
2022/02/01 03:13:14;;;;;;;53.38;47.58;;;;;;;;;;4963373;28;20025;-76
2022/02/01 03:15:54;;;;;;;56.97;49.63;;;;;;;;;;4942633;29;20019;-76
2022/02/01 03:21:03;;;;;;;61.90;51.25;;;;;;;;;;4942657;28;20030;-77
2022/02/01 03:23:28;;;;;;;53.97;48.63;;;;;;;;;;4947953;28;20039;-78
2022/02/01 03:25:54;;;;;;;56.00;49.10;;;;;;;;;;4952557;29;20094;-78
2022/02/01 03:28:19;;;;;;;54.40;48.00;;;;;;;;;;4952343;29;20026;-78
2022/02/01 03:30:44;;;;;;;53.50;48.47;;;;;;;;;;4951943;29;20015;-78
2022/02/01 03:33:09;;;;;;;52.47;47.13;;;;;;;;;;4948606;29;20046;-78
2022/02/01 03:35:34;;;;;;;104.27;64.80;;;;;;;;;;4951049;28;20175;-78
2022/02/01 03:38:02;;;;;;;66.73;51.93;;;;;;;;;;4942221;28;20034;-77
2022/02/01 03:40:27;;;;;;;52.28;47.08;;;;;;;;;;4949743;29;20116;-77
2022/02/01 03:42:52;;;;;;;66.80;52.30;;;;;;;;;;4950258;29;20397;-77
2022/02/01 03:45:17;;;;;;;55.33;49.43;;;;;;;;;;4951622;29;20019;-78
2022/02/01 03:47:43;;;;;;;56.60;49.10;;;;;;;;;;4949134;28;20025;-78
2022/02/01 03:50:08;;;;;;;61.80;50.63;;;;;;;;;;4946416;29;20019;-78
2022/02/01 03:52:33;;;;;;;55.43;49.57;;;;;;;;;;4951619;29;20012;-78
2022/02/01 03:54:58;;;;;;;53.13;47.90;;;;;;;;;;4951932;29;20113;-78
2022/02/01 03:57:24;;;;;;;54.47;48.83;;;;;;;;;;4945547;29;20110;-77
2022/02/01 03:59:49;;;;;;;54.50;48.70;;;;;;;;;;4950260;29;20501;-78
2022/02/01 04:02:15;;;;;;;52.30;47.33;;;;;;;;;;4951404;29;20070;-76
2022/02/01 04:04:40;;;;;;;53.63;48.20;;;;;;;;;;4953976;29;20027;-78
2022/02/01 04:07:06;;;;;;;55.63;48.27;;;;;;;;;;4950920;29;20498;-77
2022/02/01 04:09:32;;;;;;;55.85;49.25;;;;;;;;;;4970757;28;20194;-78
2022/02/01 04:11:59;;;;;;;58.97;48.88;;;;;;;;;;4971377;28;20023;-77
2022/02/01 04:14:27;;;;;;;53.08;47.97;;;;;;;;;;4965423;29;20034;-79
2022/02/01 04:16:53;;;;;;;54.22;48.45;;;;;;;;;;4974469;23;20047;-79
2022/02/01 04:19:19;;;;;;;53.40;48.10;;;;;;;;;;4996966;23;20563;-80
2022/02/01 04:22:02;;;;;;;51.83;46.67;;;;;;;;;;4965450;28;20034;-81
2022/02/01 04:24:32;;;;;;;51.67;46.10;;;;;;;;;;4970447;28;20043;-80
2022/02/01 04:26:57;;;;;;;55.03;49.03;;;;;;;;;;4963772;28;20026;-80
2022/02/01 04:29:23;;;;;;;51.53;46.60;;;;;;;;;;4958718;28;20116;-83
2022/02/01 04:31:48;;;;;;;50.93;46.00;;;;;;;;;;4959566;28;20274;-82
2022/02/01 04:34:13;;;;;;;56.40;48.47;;;;;;;;;;4960325;29;20431;-82
2022/02/01 04:36:39;;;;;;;52.93;47.10;;;;;;;;;;4959091;28;20051;-82
2022/02/01 04:39:04;;;;;;;53.17;47.43;;;;;;;;;;4959925;28;20015;-81
2022/02/01 04:41:30;;;;;;;53.20;47.60;;;;;;;;;;4974310;28;20042;-79
2022/02/01 04:43:58;;;;;;;53.07;47.13;;;;;;;;;;4976020;28;20035;-81
2022/02/01 04:46:23;;;;;;;61.92;49.00;;;;;;;;;;4973617;28;20034;-81
2022/02/01 04:48:48;;;;;;;51.43;46.17;;;;;;;;;;4976806;28;20018;-81
2022/02/01 04:51:18;;;;;;;51.53;46.20;;;;;;;;;;4976346;28;20011;-81
2022/02/01 04:53:44;;;;;;;52.30;47.05;;;;;;;;;;4972692;28;20011;-80
2022/02/01 04:56:09;;;;;;;60.58;50.58;;;;;;;;;;4973083;28;20034;-79
2022/02/01 04:58:34;;;;;;;51.87;46.87;;;;;;;;;;4978050;28;20036;-81
2022/02/01 05:01:00;;;;;;;60.70;51.20;;;;;;;;;;4977645;28;20019;-81
2022/02/01 05:03:25;;;;;;;51.85;46.78;;;;;;;;;;4969187;28;20031;-83
2022/02/01 05:05:51;;;;;;;52.77;47.20;;;;;;;;;;4963785;28;20034;-83
2022/02/01 05:08:16;;;;;;;56.07;46.83;;;;;;;;;;4978091;28;20026;-82
2022/02/01 05:10:41;;;;;;;51.70;47.00;;;;;;;;;;4957883;28;20024;-82
2022/02/01 05:15:33;;;;;;;53.10;47.38;;;;;;;;;;4963215;28;20050;-83
2022/02/01 05:17:59;;;;;;;54.13;46.70;;;;;;;;;;4960342;28;20027;-81
2022/02/01 05:20:42;;;;;;;52.13;46.60;;;;;;;;;;4953031;28;20160;-81
2022/02/01 05:23:07;;;;;;;56.92;47.00;;;;;;;;;;4954228;28;20094;-83
2022/02/01 05:25:33;;;;;;;51.90;46.53;;;;;;;;;;4959141;28;20051;-83
2022/02/01 05:27:59;;;;;;;52.90;47.43;;;;;;;;;;4958409;29;20019;-84
2022/02/01 05:30:25;;;;;;;55.65;48.70;;;;;;;;;;4958626;28;20019;-83
2022/02/01 05:32:51;;;;;;;52.43;46.97;;;;;;;;;;4964141;28;20019;-83
2022/02/01 05:35:17;;;;;;;54.73;48.93;;;;;;;;;;4966226;28;20004;-82
2022/02/01 05:37:44;;;;;;;51.45;46.33;;;;;;;;;;4966834;29;20325;-84
2022/02/01 05:40:10;;;;;;;53.05;47.25;;;;;;;;;;4957944;28;20027;-82
2022/02/01 05:42:44;;;;;;;;;;;;;;;;;;4970957;28;20062;-82
2022/02/01 05:45:09;;;;;;;50.65;45.63;;;;;;;;;;4972563;28;19906;-81
2022/02/01 05:47:35;;;;;;;50.63;45.77;;;;;;;;;;4990693;28;20526;-81
2022/02/01 05:50:00;;;;;;;52.03;46.87;;;;;;;;;;4974936;28;20019;-81
2022/02/01 05:52:25;;;;;;;52.67;47.37;;;;;;;;;;4976899;29;20047;-82
2022/02/01 05:54:50;;;;;;;52.50;47.03;;;;;;;;;;4972481;29;20003;-81
2022/02/01 05:57:16;;;;;;;63.63;48.83;;;;;;;;;;4970258;28;20661;-81
2022/02/01 05:59:41;;;;;;;53.93;48.20;;;;;;;;;;4958472;28;20159;-82
2022/02/01 06:02:06;;;;;;;52.30;47.23;;;;;;;;;;4959558;29;20325;-82
2022/02/01 06:04:34;;;;;;;71.07;50.47;;;;;;;;;;4957293;28;20034;-82
2022/02/01 06:07:17;;;;;;;;;;;;;;;;;;;;;
2022/02/01 06:09:43;;;;;;;52.42;47.22;;;;;;;;;;4961690;29;20076;-82
2022/02/01 06:12:09;;;;;;;52.27;47.17;;;;;;;;;;4969030;28;20027;-82
2022/02/01 06:14:34;;;;;;;53.60;47.97;;;;;;;;;;4959198;29;20028;-82
2022/02/01 06:17:02;;;;;;;51.33;46.47;;;;;;;;;;4961861;28;20478;-83
2022/02/01 06:19:27;;;;;;;52.60;47.50;;;;;;;;;;4957964;29;20526;-84
2022/02/01 06:21:53;;;;;;;52.75;47.17;;;;;;;;;;4961932;29;20047;-83
2022/02/01 06:24:44;;;;;;;55.07;49.17;;;;;;;;;;4959449;29;20038;-84
2022/02/01 06:27:12;;;;;;;56.13;49.33;;;;;;;;;;4958717;28;20066;-83
2022/02/01 06:29:54;;;;;;;;;;;;;;;;;;;;;
2022/02/01 06:32:19;;;;;;;51.30;46.47;;;;;;;;;;4962471;28;20086;-85
2022/02/01 06:34:49;;;;;;;53.93;48.30;;;;;;;;;;4959733;29;20074;-86
2022/02/01 06:37:27;;;;;;;52.67;47.10;;;;;;;;;;4962164;28;20027;-84
2022/02/01 06:40:02;;;;;;;52.28;46.92;;;;;;;;;;4962020;28;20089;-84
2022/02/01 06:42:27;;;;;;;52.28;46.88;;;;;;;;;;4985681;28;20499;-83
2022/02/01 06:48:46;;;;;;;51.92;46.83;;;;;;;;;;4898519;29;20028;-84
2022/02/01 06:51:23;;;;;;;54.08;47.65;;;;;;;;;;4847176;29;20054;-82
2022/02/01 06:54:21;;;;;;;51.83;46.85;;;;;;;;;;4898703;29;20037;-82
2022/02/01 06:59:52;;;;;;;52.72;47.15;;;;;;;;;;4971670;28;20095;-84
2022/02/01 07:02:23;;;;;;;54.72;49.00;;;;;;;;;;4985666;28;20037;-82
2022/02/01 07:04:48;;;;;;;64.55;50.97;;;;;;;;;;4974242;28;20031;-82
2022/02/01 07:07:13;;;;;;;52.97;47.37;;;;;;;;;;4970025;28;20058;-81
2022/02/01 07:09:59;;;;;;;56.37;49.20;;;;;;;;;;4972842;28;20008;-81
2022/02/01 07:12:33;;;;;;;63.63;49.15;;;;;;;;;;4978476;28;20176;-81
2022/02/01 07:15:06;;;;;;;56.42;48.40;;;;;;;;;;4977109;28;20011;-81
2022/02/01 07:20:33;;;;;;;52.50;47.17;;;;;;;;;;4966145;28;20032;-82
2022/02/01 07:25:46;;;;;;;53.15;47.58;;;;;;;;;;4967542;28;20030;-84
2022/02/01 07:28:13;;;;;;;55.80;48.15;;;;;;;;;;4976944;28;20027;-80
2022/02/01 07:30:38;;;;;;;59.50;48.67;;;;;;;;;;4978115;28;20046;-81
2022/02/01 07:33:03;;;;;;;58.63;49.30;;;;;;;;;;4978421;28;20061;-81
2022/02/01 07:35:31;;;;;;;65.93;49.63;;;;;;;;;;4976364;28;20036;-83
2022/02/01 07:45:00;;;;;;;;;;;;;;;;;;;;;
2022/02/01 07:56:43;;;;;;;55.20;48.75;;;;;;;;;;4982276;23;20058;-77
2022/02/01 07:59:08;;;;;;;85.47;56.77;;;;;;;;;;4949604;28;20026;-77
2022/02/01 08:01:33;;;;;;;54.63;48.63;;;;;;;;;;4963933;28;20458;-77
2022/02/01 08:03:58;;;;;;;66.20;49.87;;;;;;;;;;4970123;28;20093;-77
2022/02/01 08:06:24;;;;;;;69.53;51.87;;;;;;;;;;4967535;28;20062;-79
2022/02/01 08:08:49;;;;;;;52.87;47.17;;;;;;;;;;4967826;28;20023;-78
2022/02/01 08:11:16;;;;;;;54.25;48.38;;;;;;;;;;4970927;28;20018;-77
2022/02/01 08:16:54;;;;;;;56.13;49.55;;;;;;;;;;4970552;28;20477;-78
2022/02/01 08:19:21;;;;;;;55.45;48.38;;;;;;;;;;4971167;28;20093;-79
2022/02/01 08:21:47;;;;;;;101.03;59.60;;;;;;;;;;4968740;28;20691;-78
2022/02/01 08:24:13;;;;;;;55.38;49.05;;;;;;;;;;4968603;28;20519;-76
2022/02/01 08:26:38;;;;;;;72.00;51.53;;;;;;;;;;4972620;28;20031;-78
2022/02/01 08:29:04;;;;;;;61.40;49.03;;;;;;;;;;4985027;28;20385;-77
2022/02/01 08:31:30;;;;;;;54.45;48.38;;;;;;;;;;4986688;28;20192;-78
2022/02/01 08:33:55;;;;;;;53.47;47.73;;;;;;;;;;4986354;28;20404;-79
2022/02/01 08:36:20;;;;;;;68.93;51.37;;;;;;;;;;4982157;28;20081;-78
2022/02/01 08:38:46;;;;;;;57.73;49.40;;;;;;;;;;4981909;28;20202;-78
2022/02/01 08:41:12;;;;;;;58.10;49.87;;;;;;;;;;4981671;28;20023;-77
2022/02/01 08:43:40;;;;;;;55.38;49.00;;;;;;;;;;4983094;28;20404;-79
2022/02/01 08:46:05;;;;;;;66.45;51.67;;;;;;;;;;4993554;28;20019;-78
2022/02/01 08:48:33;;;;;;;58.43;49.30;;;;;;;;;;4979124;28;20119;-78
2022/02/01 08:51:03;;;;;;;55.83;48.20;;;;;;;;;;4981460;28;20018;-79
2022/02/01 08:53:42;;;;;;;52.72;47.67;;;;;;;;;;4983208;28;20035;-79
2022/02/01 08:57:20;;;;;;;69.43;52.55;;;;;;;;;;4975690;28;20030;-79
2022/02/01 08:58:55;;;;;;;61.22;49.63;;;;;;;;;;4977248;28;20085;-78
2022/02/01 09:01:21;;;;;;;64.93;51.47;;;;;;;;;;4978378;28;20083;-79
2022/02/01 09:03:46;;;;;;;58.57;50.17;;;;;;;;;;4977466;28;20026;-78
2022/02/01 09:06:12;;;;;;;68.30;52.03;;;;;;;;;;4974487;28;20023;-77
2022/02/01 09:08:40;;;;;;;54.13;48.57;;;;;;;;;;4977530;28;20280;-77
2022/02/01 09:11:07;;;;;;;53.75;48.47;;;;;;;;;;4979151;28;20073;-78
2022/02/01 09:13:35;;;;;;;53.75;48.13;;;;;;;;;;4977020;28;20018;-78
2022/02/01 09:16:00;;;;;;;64.25;51.65;;;;;;;;;;4976109;28;20511;-77
2022/02/01 09:18:28;;;;;;;58.53;49.60;;;;;;;;;;4968195;28;20046;-79
2022/02/01 09:20:54;;;;;;;54.80;48.83;;;;;;;;;;4976175;28;20094;-79
2022/02/01 09:23:19;;;;;;;54.23;48.60;;;;;;;;;;4976256;28;20042;-77
2022/02/01 09:25:48;;;;;;;56.67;49.67;;;;;;;;;;4977598;28;20030;-79
2022/02/01 09:28:14;;;;;;;64.90;49.72;;;;;;;;;;4969281;28;20019;-78
2022/02/01 09:30:39;;;;;;;54.93;48.97;;;;;;;;;;4974246;28;20023;-79
2022/02/01 09:33:05;;;;;;;57.07;50.03;;;;;;;;;;4976205;28;20099;-77
2022/02/01 09:35:32;;;;;;;53.83;48.37;;;;;;;;;;4978288;28;20034;-78
2022/02/01 09:37:58;;;;;;;54.75;48.90;;;;;;;;;;4973388;28;20042;-78
2022/02/01 09:40:34;;;;;;;70.07;51.03;;;;;;;;;;4973700;28;20031;-78
2022/02/01 09:43:02;;;;;;;56.78;50.25;;;;;;;;;;4969884;28;20026;-79
2022/02/01 09:45:29;;;;;;;55.10;49.20;;;;;;;;;;4982192;28;20022;-78
2022/02/01 09:48:00;;;;;;;59.42;50.33;;;;;;;;;;4977519;28;20015;-78
2022/02/01 09:50:26;;;;;;;57.75;51.15;;;;;;;;;;4978409;28;20023;-83
2022/02/01 09:53:00;;;;;;;62.63;52.72;;;;;;;;;;4969206;28;20026;-78
2022/02/01 09:55:26;;;;;;;59.78;51.15;;;;;;;;;;4976174;28;20034;-80
2022/02/01 09:57:55;;;;;;;61.30;51.70;;;;;;;;;;4970460;28;20015;-78
2022/02/01 10:00:23;;;;;;;59.30;52.38;;;;;;;;;;4974813;28;20018;-81
2022/02/01 10:02:56;;;;;;;75.22;55.55;;;;;;;;;;4974078;28;20033;-78
2022/02/01 10:05:21;;;;;;;61.70;52.15;;;;;;;;;;4974086;28;20022;-77
2022/02/01 10:07:57;;;;;;;59.30;53.00;;;;;;;;;;4970500;28;20019;-78
2022/02/01 10:10:24;;;;;;;61.72;52.90;;;;;;;;;;4972952;28;20062;-81
2022/02/01 10:13:02;;;;;;;65.10;52.72;;;;;;;;;;4974647;28;20127;-78
2022/02/01 10:15:28;;;;;;;57.13;51.40;;;;;;;;;;4974781;28;20503;-77
2022/02/01 10:18:03;;;;;;;76.03;57.60;;;;;;;;;;4962835;28;20039;-77
2022/02/01 10:20:32;;;;;;;59.05;53.03;;;;;;;;;;4977537;23;20318;-79
2022/02/01 10:22:57;;;;;;;61.35;53.05;;;;;;;;;;4967878;28;20054;-80
2022/02/01 10:25:28;;;;;;;61.20;53.07;;;;;;;;;;4968605;28;20059;-78
2022/02/01 10:27:59;;;;;;;59.85;52.83;;;;;;;;;;4969037;29;20019;-78
2022/02/01 10:30:35;;;;;;;75.40;58.42;;;;;;;;;;4962538;28;20043;-77
2022/02/01 10:35:32;;;;;;;62.77;51.73;;;;;;;;;;4968441;28;20086;-77
2022/02/01 10:37:59;;;;;;;57.95;51.80;;;;;;;;;;4984132;28;20031;-79
2022/02/01 10:40:35;;;;;;;58.10;52.13;;;;;;;;;;4965190;28;20027;-78
2022/02/01 10:43:04;;;;;;;58.05;52.08;;;;;;;;;;4966715;28;20281;-78
2022/02/01 10:45:30;;;;;;;56.70;51.15;;;;;;;;;;4961550;28;20015;-78
2022/02/01 10:47:56;;;;;;;57.97;51.85;;;;;;;;;;4960993;29;20019;-78
2022/02/01 10:50:25;;;;;;;63.00;53.23;;;;;;;;;;4955582;28;20174;-78
2022/02/01 10:52:50;;;;;;;60.60;52.55;;;;;;;;;;4961259;28;20034;-79
2022/02/01 10:55:17;;;;;;;59.43;53.40;;;;;;;;;;4960264;28;20504;-78
2022/02/01 10:57:42;;;;;;;58.83;52.67;;;;;;;;;;4960013;29;20011;-78
2022/02/01 11:00:09;;;;;;;57.03;51.30;;;;;;;;;;4956709;28;20026;-77
2022/02/01 11:02:37;;;;;;;60.55;53.72;;;;;;;;;;4959466;28;20019;-78
2022/02/01 11:05:03;;;;;;;58.22;51.95;;;;;;;;;;4962855;28;20396;-79
2022/02/01 11:07:28;;;;;;;56.75;51.13;;;;;;;;;;4963010;28;20023;-77
2022/02/01 11:09:53;;;;;;;72.25;57.13;;;;;;;;;;4955854;28;20015;-75
2022/02/01 11:12:18;;;;;;;58.97;52.80;;;;;;;;;;4958936;28;20030;-79
2022/02/01 11:14:46;;;;;;;58.33;52.37;;;;;;;;;;4959246;28;20023;-76
2022/02/01 11:17:14;;;;;;;59.92;53.72;;;;;;;;;;4956979;29;20065;-76
2022/02/01 11:19:56;;;;;;;60.35;53.60;;;;;;;;;;4957576;28;20015;-78
2022/02/01 11:22:27;;;;;;;58.10;52.15;;;;;;;;;;4955303;28;20035;-78
2022/02/01 11:24:53;;;;;;;58.88;53.00;;;;;;;;;;4959934;28;20022;-78
2022/02/01 11:27:31;;;;;;;57.00;51.03;;;;;;;;;;4959477;29;20012;-79
2022/02/01 11:32:30;;;;;;;60.17;53.45;;;;;;;;;;4958253;28;19914;-76
2022/02/01 11:35:04;;;;;;;58.72;52.75;;;;;;;;;;4955802;28;20016;-78
2022/02/01 11:37:29;;;;;;;57.78;51.70;;;;;;;;;;4957025;29;20098;-78
2022/02/01 11:39:56;;;;;;;71.13;55.10;;;;;;;;;;4954099;28;20054;-76
2022/02/01 11:42:22;;;;;;;57.92;51.80;;;;;;;;;;4953788;28;20027;-79
2022/02/01 11:44:58;;;;;;;57.47;50.75;;;;;;;;;;4959886;28;20082;-78
2022/02/01 11:47:30;;;;;;;55.55;50.15;;;;;;;;;;4955067;29;20024;-79
2022/02/01 11:50:00;;;;;;;67.97;55.08;;;;;;;;;;4954892;29;20011;-78
2022/02/01 11:52:26;;;;;;;58.65;52.25;;;;;;;;;;4956551;28;20034;-77
2022/02/01 11:55:03;;;;;;;57.83;51.80;;;;;;;;;;4956550;28;20031;-78
2022/02/01 11:57:29;;;;;;;56.88;50.95;;;;;;;;;;4957652;29;20031;-78
2022/02/01 11:59:59;;;;;;;62.70;53.53;;;;;;;;;;4954028;29;20133;-79
2022/02/01 12:02:28;;;;;;;55.45;50.05;;;;;;;;;;4958457;28;20030;-77
2022/02/01 12:05:04;;;;;;;58.20;52.22;;;;;;;;;;4963405;28;20023;-79
2022/02/01 12:07:40;;;;;;;56.38;50.78;;;;;;;;;;4960637;29;20385;-77
2022/02/01 12:10:12;;;;;;;61.63;53.90;;;;;;;;;;4953986;29;20062;-78
2022/02/01 12:12:38;;;;;;;58.67;52.60;;;;;;;;;;4966821;28;20031;-76
2022/02/01 12:15:03;;;;;;;58.10;52.13;;;;;;;;;;4970270;28;20034;-77
2022/02/01 12:17:28;;;;;;;57.23;51.60;;;;;;;;;;4975700;29;20015;-76
2022/02/01 12:19:57;;;;;;;67.80;55.87;;;;;;;;;;4972063;28;20031;-76
2022/02/01 12:22:30;;;;;;;58.63;52.60;;;;;;;;;;4985397;28;20031;-77
2022/02/01 12:25:05;;;;;;;59.72;53.55;;;;;;;;;;4968061;28;20110;-76
2022/02/01 12:27:34;;;;;;;60.50;54.28;;;;;;;;;;4970765;29;20062;-77
2022/02/01 12:30:00;;;;;;;62.40;55.35;;;;;;;;;;4968337;28;20049;-77
2022/02/01 12:32:25;;;;;;;56.40;51.00;;;;;;;;;;4969423;28;20106;-75
2022/02/01 12:34:51;;;;;;;55.17;50.13;;;;;;;;;;4968112;28;20027;-75
2022/02/01 12:37:23;;;;;;;57.77;52.07;;;;;;;;;;4972756;28;20030;-79
2022/02/01 12:40:07;;;;;;;62.40;53.50;;;;;;;;;;4966296;29;20030;-78
2022/02/01 12:42:42;;;;;;;58.00;51.95;;;;;;;;;;4968166;28;20023;-79
2022/02/01 12:48:01;;;;;;;56.65;51.03;;;;;;;;;;4962982;29;20366;-76
2022/02/01 12:50:27;;;;;;;57.83;51.92;;;;;;;;;;4959820;28;20108;-79
2022/02/01 12:52:56;;;;;;;56.97;51.10;;;;;;;;;;4962072;28;20019;-81
2022/02/01 12:55:24;;;;;;;56.95;51.17;;;;;;;;;;4960436;28;20119;-77
2022/02/01 12:57:49;;;;;;;56.13;50.50;;;;;;;;;;4967361;29;20011;-77
2022/02/01 13:00:16;;;;;;;60.30;52.77;;;;;;;;;;4969987;28;20040;-77
2022/02/01 13:02:42;;;;;;;58.15;51.95;;;;;;;;;;4975136;28;20114;-76
2022/02/01 13:05:08;;;;;;;55.42;50.03;;;;;;;;;;4977812;28;20027;-77
2022/02/01 13:15:48;;;;;;;56.10;50.55;;;;;;;;;;4966660;29;20020;-78
2022/02/01 13:20:54;;;;;;;57.20;51.10;;;;;;;;;;4963471;28;20038;-78
2022/02/01 13:23:20;;;;;;;55.42;49.92;;;;;;;;;;4965908;28;20026;-78
2022/02/01 13:25:45;;;;;;;55.10;49.70;;;;;;;;;;4966690;29;20019;-78
2022/02/01 13:28:13;;;;;;;55.97;50.13;;;;;;;;;;4964449;29;20015;-79
2022/02/01 13:30:39;;;;;;;58.08;51.78;;;;;;;;;;4961439;28;20026;-79
2022/02/01 13:33:05;;;;;;;56.85;51.05;;;;;;;;;;4961195;28;20417;-79
2022/02/01 13:35:30;;;;;;;57.17;50.88;;;;;;;;;;4965618;28;20050;-78
2022/02/01 13:37:56;;;;;;;56.33;50.57;;;;;;;;;;4960232;29;20022;-78
2022/02/01 13:40:22;;;;;;;57.60;51.53;;;;;;;;;;4959146;28;20023;-78
2022/02/01 13:42:47;;;;;;;;;;;;;;;;;;4962188;28;20151;-79
2022/02/01 13:45:14;;;;;;;57.58;51.60;;;;;;;;;;4963003;28;19966;-78
2022/02/01 13:47:39;;;;;;;;;;;;;;;;;;4967271;28;20015;-78
2022/02/01 13:50:08;;;;;;;69.20;55.03;;;;;;;;;;4963815;29;20088;-77
2022/02/01 13:52:33;;;;;;;60.35;52.42;;;;;;;;;;4962796;28;20012;-76
2022/02/01 13:54:58;;;;;;;56.83;51.00;;;;;;;;;;4966253;28;20027;-79
2022/02/01 13:57:26;;;;;;;58.63;50.20;;;;;;;;;;4965534;28;20046;-78
2022/02/01 13:59:52;;;;;;;74.13;55.40;;;;;;;;;;4959755;28;20077;-76
2022/02/01 14:02:24;;;;;;;57.40;51.15;;;;;;;;;;4966075;28;20015;-78
2022/02/01 14:04:52;;;;;;;61.47;50.97;;;;;;;;;;4962047;28;20026;-77
2022/02/01 14:10:05;;;;;;;72.70;55.07;;;;;;;;;;4961820;28;20496;-81
2022/02/01 14:13:02;;;;;;;66.28;52.60;;;;;;;;;;4964168;28;20019;-77
2022/02/01 14:36:08;;;;;;;73.18;51.80;;;;;;;;;;4978839;28;20027;-78
2022/02/01 14:38:56;;;;;;;63.85;51.38;;;;;;;;;;4978509;28;20007;-75
2022/02/01 14:46:43;;;;;;;72.80;52.40;;;;;;;;;;4978498;28;20007;-76
2022/02/01 14:49:08;;;;;;;74.13;53.00;;;;;;;;;;4977429;28;20014;-77
2022/02/01 14:51:34;;;;;;;64.73;52.10;;;;;;;;;;4973686;28;20004;-77
2022/02/01 14:53:59;;;;;;;76.73;53.50;;;;;;;;;;4973178;28;20050;-78
2022/02/01 14:56:28;;;;;;;69.20;53.57;;;;;;;;;;4966762;28;20015;-77
2022/02/01 15:04:58;;;;;;;71.13;52.55;;;;;;;;;;4967035;28;20091;-80
2022/02/01 15:07:36;;;;;;;69.32;51.22;;;;;;;;;;4964623;29;20019;-77
2022/02/01 15:12:48;;;;;;;68.75;52.13;;;;;;;;;;4962447;28;20026;-78
2022/02/01 15:15:14;;;;;;;63.38;53.33;;;;;;;;;;4961030;28;20023;-78
2022/02/01 15:17:40;;;;;;;71.63;52.83;;;;;;;;;;4961812;28;20100;-79
2022/02/01 15:20:06;;;;;;;84.20;54.80;;;;;;;;;;4959271;29;20305;-79
2022/02/01 15:22:31;;;;;;;;;;;;;;;;;;4969481;28;20572;-76
2022/02/01 15:24:57;;;;;;;62.95;50.80;;;;;;;;;;4963507;28;19910;-79
2022/02/01 15:27:22;;;;;;;62.23;51.30;;;;;;;;;;4961388;29;20019;-81
2022/02/01 15:29:48;;;;;;;65.37;52.53;;;;;;;;;;4949173;28;20020;-79
2022/02/01 15:32:13;;;;;;;63.93;51.87;;;;;;;;;;4966544;28;20548;-79
2022/02/01 15:34:40;;;;;;;60.03;52.23;;;;;;;;;;4975884;28;20035;-78
2022/02/01 15:37:06;;;;;;;56.33;50.40;;;;;;;;;;4965040;28;20019;-79
2022/02/01 15:56:37;;;;;;;61.50;51.55;;;;;;;;;;4999910;28;20110;-87
2022/02/01 15:58:57;;;;;;;74.50;51.85;;;;;;;;;;4989643;28;20022;-88
2022/02/01 16:01:50;;;;;;;56.33;50.13;;;;;;;;;;4998210;28;20026;-88
2022/02/01 16:04:08;;;;;;;65.60;51.47;;;;;;;;;;5000036;28;20038;-87
2022/02/01 16:06:36;;;;;;;61.53;50.85;;;;;;;;;;4999098;28;20065;-81
2022/02/01 16:09:25;;;;;;;81.25;54.78;;;;;;;;;;4995201;28;20036;-82
2022/02/01 16:11:51;;;;;;;63.50;51.60;;;;;;;;;;4994054;28;20014;-88
2022/02/01 16:14:16;;;;;;;66.57;51.95;;;;;;;;;;4992924;28;20022;-87
2022/02/01 16:16:42;;;;;;;72.33;53.60;;;;;;;;;;5002100;28;20156;-88
2022/02/01 16:19:07;;;;;;;57.88;51.75;;;;;;;;;;5005827;28;20026;-85
2022/02/01 16:21:33;;;;;;;99.10;57.83;;;;;;;;;;5068664;23;20040;-76
2022/02/01 16:23:58;;;;;;;68.33;52.20;;;;;;;;;;4947088;29;20035;-76
2022/02/01 16:26:24;;;;;;;70.23;51.50;;;;;;;;;;4947550;28;20023;-75
2022/02/01 16:28:50;;;;;;;67.93;52.40;;;;;;;;;;4951969;29;20273;-77
2022/02/01 16:31:18;;;;;;;66.37;52.90;;;;;;;;;;4952092;28;20163;-76
2022/02/01 16:33:44;;;;;;;66.72;52.47;;;;;;;;;;4949064;28;20285;-78
2022/02/01 16:36:18;;;;;;;71.60;52.20;;;;;;;;;;4954145;28;20034;-77
2022/02/01 16:38:44;;;;;;;71.70;54.78;;;;;;;;;;4969261;28;20042;-77
2022/02/01 16:41:09;;;;;;;64.85;51.45;;;;;;;;;;4954592;28;20405;-76
2022/02/01 16:43:36;;;;;;;78.43;55.87;;;;;;;;;;4950369;29;20459;-75
2022/02/01 16:46:01;;;;;;;;;;;;;;;;;;4946969;29;20110;-76
2022/02/01 16:48:28;;;;;;;61.75;50.33;;;;;;;;;;4969550;28;20376;-75
2022/02/01 16:50:54;;;;;;;59.15;51.00;;;;;;;;;;4959002;28;20034;-79
2022/02/01 16:53:21;;;;;;;64.63;52.03;;;;;;;;;;4954654;29;20023;-76
2022/02/01 16:55:58;;;;;;;66.40;51.42;;;;;;;;;;4957221;28;20019;-75
2022/02/01 16:58:26;;;;;;;61.55;50.85;;;;;;;;;;4958019;28;20034;-76
2022/02/01 17:00:52;;;;;;;103.30;62.60;;;;;;;;;;4953130;28;20487;-76
2022/02/01 17:03:19;;;;;;;71.75;53.65;;;;;;;;;;4949095;28;20031;-75
2022/02/01 17:05:44;;;;;;;59.78;50.33;;;;;;;;;;4972781;28;20034;-75
2022/02/01 17:08:11;;;;;;;58.42;49.97;;;;;;;;;;4956818;28;20019;-77
2022/02/01 17:10:37;;;;;;;56.17;50.35;;;;;;;;;;4971526;28;20037;-76
2022/02/01 17:13:08;;;;;;;62.28;50.90;;;;;;;;;;4954309;28;20019;-77
2022/02/01 17:23:46;;;;;;;60.08;50.70;;;;;;;;;;4952955;29;20102;-76
2022/02/01 17:26:12;;;;;;;76.03;53.07;;;;;;;;;;4971822;28;20113;-76
2022/02/01 17:28:37;;;;;;;64.33;50.17;;;;;;;;;;4957346;28;20022;-75
2022/02/01 17:31:03;;;;;;;65.35;50.53;;;;;;;;;;4956867;28;20023;-78